Saint George's, Canada
Current Conditions -  °F | °C
As of 6:00 PM on Sunday 23 Nov 2014 (Local Time) from CYJT Reporting Station
Broken Clouds Broken Clouds  
Wind Chill: 22°   Ceiling: 1800
Heat Index: 34°   Visibility: 15mi
Dew Point: 23°   Wind: 23mph
Humidity: 65%   Direction: 290°WNW
Pressure: 29.9"   Gusts: 33mph
Location:  48.43°N, 58.5°W
Report Text: CYJT 232100Z 29020G29KT 15SM BKN018 01/M05 A2990 RMK SC5 PRESRR SLP126
Loading
Personal Weather Stations






























Interactive Weather Map New forecast layout! Learn more

10-Day Weather Forecast

Advertisements
Track Severe Weather on mobile